createdAt,value
2018-02-09T00:02:11.435Z,72.52
2018-02-09T00:04:40.489Z,73.08
2018-02-09T00:07:09.457Z,73.39
2018-02-09T00:09:40.452Z,73.47
2018-02-09T00:12:09.919Z,73.62
2018-02-09T00:14:39.356Z,74.20
2018-02-09T00:17:09.433Z,74.94
2018-02-09T00:19:40.143Z,75.02
2018-02-09T00:22:14.637Z,75.60
2018-02-09T00:24:44.108Z,75.86
2018-02-09T00:27:13.402Z,75.75
2018-02-09T00:29:44.110Z,76.33
2018-02-09T00:32:13.476Z,77.71
2018-02-09T00:34:42.680Z,78.43
2018-02-09T00:37:11.886Z,78.37
2018-02-09T00:39:41.870Z,78.58
2018-02-09T00:42:11.627Z,78.42
2018-02-09T00:44:41.109Z,78.21
2018-02-09T00:47:10.110Z,78.33
2018-02-09T00:49:39.314Z,78.26
2018-02-09T00:52:10.017Z,78.01
2018-02-09T00:54:40.424Z,76.66
2018-02-09T00:57:09.513Z,75.78
2018-02-09T00:59:40.973Z,75.71
2018-02-09T01:02:10.577Z,75.42
2018-02-09T01:04:39.581Z,75.98
2018-02-09T01:07:09.693Z,76.20
2018-02-09T01:09:38.788Z,75.99
2018-02-09T01:12:08.334Z,75.67
2018-02-09T01:14:38.319Z,75.42
2018-02-09T01:17:07.308Z,74.87
2018-02-09T01:19:36.378Z,75.26
2018-02-09T01:22:05.497Z,75.35
2018-02-09T01:24:35.121Z,75.41
2018-02-09T01:27:04.106Z,75.78
2018-02-09T01:29:33.951Z,75.77
2018-02-09T01:32:03.111Z,75.60
2018-02-09T01:34:32.076Z,75.77
2018-02-09T01:37:01.192Z,76.73
2018-02-09T01:39:30.301Z,78.11
2018-02-09T01:41:59.802Z,78.98
2018-02-09T01:44:28.899Z,79.35
2018-02-09T01:46:58.796Z,78.94
2018-02-09T01:49:28.012Z,79.00
2018-02-09T01:51:58.823Z,79.00
2018-02-09T01:54:27.775Z,79.15
2018-02-09T01:56:56.736Z,79.05
2018-02-09T01:59:26.554Z,79.07
2018-02-09T02:01:56.056Z,78.86
2018-02-09T02:04:25.129Z,79.03
2018-02-09T02:06:55.005Z,78.62
2018-02-09T02:09:23.959Z,78.99
2018-02-09T02:11:52.890Z,78.66
2018-02-09T02:14:22.969Z,78.52
2018-02-09T02:16:52.168Z,78.66
2018-02-09T02:19:21.224Z,78.95
2018-02-09T02:21:50.564Z,79.32
2018-02-09T02:24:19.638Z,79.23
2018-02-09T02:26:48.652Z,79.20
2018-02-09T02:29:20.108Z,79.51
2018-02-09T02:31:50.009Z,79.30
2018-02-09T02:34:19.122Z,79.27
2018-02-09T02:36:51.587Z,79.22
2018-02-09T02:39:21.409Z,79.23
2018-02-09T02:41:51.222Z,79.32
2018-02-09T02:44:21.083Z,79.33
2018-02-09T02:46:50.232Z,79.22
2018-02-09T02:49:20.441Z,79.52
2018-02-09T02:51:49.447Z,79.98
2018-02-09T02:54:18.750Z,80.47
2018-02-09T02:56:47.845Z,81.05
2018-02-09T02:59:17.707Z,81.29
2018-02-09T03:01:46.855Z,81.24
2018-02-09T03:04:16.878Z,81.34
2018-02-09T03:06:46.058Z,80.90
2018-02-09T03:11:44.304Z,80.90
2018-02-09T03:14:14.491Z,80.83
2018-02-09T03:16:43.483Z,81.34
2018-02-09T03:19:12.475Z,81.48
2018-02-09T03:21:47.200Z,81.48
2018-02-09T03:24:17.240Z,81.26
2018-02-09T03:26:46.416Z,81.25
2018-02-09T03:29:15.445Z,81.27
2018-02-09T03:31:44.625Z,82.00
2018-02-09T03:34:13.605Z,81.56
2018-02-09T03:36:44.655Z,81.36
2018-02-09T03:39:13.638Z,82.00
2018-02-09T03:41:42.719Z,82.79
2018-02-09T03:44:13.441Z,82.92
2018-02-09T03:46:43.110Z,82.69
2018-02-09T03:49:12.173Z,82.34
2018-02-09T03:51:41.379Z,82.53
2018-02-09T03:54:13.647Z,82.28
2018-02-09T03:56:43.597Z,82.19
2018-02-09T03:59:12.577Z,82.40
2018-02-09T04:01:45.972Z,82.71
2018-02-09T04:04:14.963Z,83.25
2018-02-09T04:06:44.062Z,83.79
2018-02-09T04:09:14.116Z,83.34
2018-02-09T04:11:43.127Z,83.14
2018-02-09T04:14:12.167Z,83.19
2018-02-09T04:16:41.162Z,83.35
2018-02-09T04:19:10.156Z,83.59
2018-02-09T04:21:39.357Z,83.84
2018-02-09T04:24:09.405Z,83.64
2018-02-09T04:26:39.193Z,83.76
2018-02-09T04:29:08.081Z,84.06
2018-02-09T04:31:37.311Z,84.15
2018-02-09T04:34:06.272Z,83.91
2018-02-09T04:36:35.467Z,83.60
2018-02-09T04:39:05.452Z,83.43
2018-02-09T04:41:34.316Z,83.71
2018-02-09T04:44:04.294Z,83.92
2018-02-09T04:46:37.690Z,84.17
2018-02-09T04:49:06.721Z,83.82
2018-02-09T04:51:35.925Z,83.71
2018-02-09T04:54:06.620Z,83.78
2018-02-09T04:56:36.435Z,83.57
2018-02-09T04:59:05.424Z,83.65
2018-02-09T05:01:34.419Z,83.49
2018-02-09T05:04:03.448Z,82.90
2018-02-09T05:06:32.520Z,82.83
2018-02-09T05:11:38.077Z,83.29
2018-02-09T05:14:07.247Z,83.46
2018-02-09T05:16:37.903Z,83.20
2018-02-09T05:19:10.479Z,82.96
2018-02-09T05:21:40.551Z,82.68
2018-02-09T05:24:09.868Z,82.47
2018-02-09T05:26:39.713Z,82.24
2018-02-09T05:29:08.792Z,81.85
2018-02-09T05:31:37.906Z,81.44
2018-02-09T05:34:07.152Z,80.20
2018-02-09T05:36:39.791Z,80.30
2018-02-09T05:39:09.703Z,79.58
2018-02-09T05:41:38.586Z,79.52
2018-02-09T05:44:10.047Z,77.59
2018-02-09T05:46:39.408Z,75.94
2018-02-09T05:49:08.466Z,75.19
2018-02-09T05:51:38.425Z,74.91
2018-02-09T05:54:07.480Z,73.41
2018-02-09T05:56:39.035Z,73.18
2018-02-09T05:59:09.360Z,72.01
2018-02-09T06:01:39.151Z,71.20
2018-02-09T06:04:08.306Z,71.78
2018-02-09T06:06:39.086Z,71.52
2018-02-09T06:09:09.738Z,71.32
2018-02-09T06:11:38.605Z,70.05
2018-02-09T06:14:08.685Z,69.93
2018-02-09T06:16:37.639Z,69.34
2018-02-09T06:19:06.530Z,68.68
2018-02-09T06:21:35.625Z,68.88
2018-02-09T06:24:04.560Z,68.76
2018-02-09T06:26:33.484Z,68.99
2018-02-09T06:29:04.138Z,68.67
2018-02-09T06:31:33.240Z,68.79
2018-02-09T06:34:02.273Z,70.22
2018-02-09T06:36:32.760Z,69.70
2018-02-09T06:39:02.062Z,68.96
2018-02-09T06:41:31.877Z,68.80
2018-02-09T06:44:02.588Z,68.31
2018-02-09T06:46:32.323Z,68.10
2018-02-09T06:49:01.296Z,67.43
2018-02-09T06:51:30.314Z,66.32
2018-02-09T06:54:01.137Z,66.46
2018-02-09T06:56:30.446Z,66.09
2018-02-09T06:58:59.543Z,66.10
2018-02-09T07:01:28.640Z,66.17
2018-02-09T07:03:57.660Z,67.15
2018-02-09T07:06:26.673Z,66.65
2018-02-09T07:08:55.690Z,66.90
2018-02-09T07:11:24.822Z,67.76
2018-02-09T07:13:58.198Z,67.37
2018-02-09T07:16:27.209Z,67.50
2018-02-09T07:18:57.381Z,67.38
2018-02-09T07:21:26.376Z,67.78
2018-02-09T07:23:55.424Z,67.17
2018-02-09T07:26:24.316Z,66.90
2018-02-09T07:28:54.764Z,66.71
2018-02-09T07:31:24.456Z,66.90
2018-02-09T07:33:53.646Z,66.48
2018-02-09T07:36:23.500Z,65.76
2018-02-09T07:38:53.380Z,64.84
2018-02-09T07:41:23.194Z,64.73
2018-02-09T07:43:53.340Z,64.89
2018-02-09T07:46:22.307Z,64.95
2018-02-09T07:48:51.707Z,64.58
2018-02-09T07:51:22.334Z,64.40
2018-02-09T07:53:52.809Z,63.79
2018-02-09T07:56:21.797Z,64.13
2018-02-09T07:58:51.779Z,63.77
2018-02-09T08:01:22.397Z,64.25
2018-02-09T08:03:51.404Z,63.42
2018-02-09T08:06:21.203Z,63.28
2018-02-09T08:08:51.882Z,63.92
2018-02-09T08:11:20.983Z,63.42
2018-02-09T08:13:51.536Z,63.23
2018-02-09T08:16:21.258Z,63.68
2018-02-09T08:18:50.288Z,63.41
2018-02-09T08:21:21.941Z,63.32
2018-02-09T08:23:50.936Z,63.41
2018-02-09T08:26:20.887Z,63.28
2018-02-09T08:28:51.790Z,63.43
2018-02-09T08:31:20.992Z,63.17
2018-02-09T08:33:54.436Z,63.04
2018-02-09T08:36:24.300Z,63.00
2018-02-09T08:38:54.761Z,62.75
2018-02-09T08:41:24.136Z,62.22
2018-02-09T08:43:53.205Z,62.17
2018-02-09T08:46:22.221Z,61.28
2018-02-09T08:48:52.017Z,61.68
2018-02-09T08:51:21.131Z,60.69
2018-02-09T08:53:51.053Z,60.49
2018-02-09T08:56:23.723Z,60.53
2018-02-09T08:58:54.496Z,59.60
2018-02-09T09:01:23.458Z,60.00
2018-02-09T09:06:27.593Z,58.99
2018-02-09T09:08:57.493Z,58.59
2018-02-09T09:11:27.379Z,58.65
2018-02-09T09:13:58.053Z,58.77
2018-02-09T09:16:27.763Z,59.12
2018-02-09T09:18:56.792Z,58.95
2018-02-09T09:21:25.749Z,59.75
2018-02-09T09:23:59.250Z,58.89
2018-02-09T09:26:28.244Z,59.03
2018-02-09T09:28:58.057Z,59.41
2018-02-09T09:31:27.974Z,59.79
2018-02-09T09:33:57.249Z,60.07
2018-02-09T09:36:27.087Z,60.39
2018-02-09T09:38:58.579Z,60.81
2018-02-09T09:41:29.286Z,60.92
2018-02-09T09:43:58.266Z,60.52
2018-02-09T09:46:29.052Z,60.07
2018-02-09T09:48:58.028Z,59.96
2018-02-09T09:51:27.987Z,59.94
2018-02-09T09:53:57.315Z,59.57
2018-02-09T09:56:26.317Z,59.09
2018-02-09T09:58:57.862Z,58.28
2018-02-09T10:01:32.895Z,58.03
2018-02-09T10:04:01.825Z,56.45
2018-02-09T10:06:30.757Z,56.09
2018-02-09T10:09:00.635Z,55.83
2018-02-09T10:11:30.538Z,56.75
2018-02-09T10:13:59.402Z,55.84
2018-02-09T10:16:28.842Z,55.51
2018-02-09T10:18:57.935Z,54.95
2018-02-09T10:21:26.932Z,55.34
2018-02-09T10:23:57.940Z,54.45
2018-02-09T10:26:26.939Z,54.66
2018-02-09T10:28:55.963Z,55.39
2018-02-09T10:31:28.501Z,54.93
2018-02-09T10:34:01.208Z,54.99
2018-02-09T10:36:31.099Z,54.70
2018-02-09T10:39:01.710Z,53.89
2018-02-09T10:41:30.869Z,53.63
2018-02-09T10:44:02.559Z,54.57
2018-02-09T10:46:31.530Z,54.28
2018-02-09T10:49:00.575Z,54.26
2018-02-09T10:51:30.640Z,53.24
2018-02-09T10:54:00.303Z,54.24
2018-02-09T10:56:29.401Z,53.87
2018-02-09T10:58:59.898Z,54.12
2018-02-09T11:01:35.475Z,52.51
2018-02-09T11:04:08.868Z,52.54
2018-02-09T11:06:37.899Z,52.79
2018-02-09T11:09:06.901Z,52.84
2018-02-09T11:11:36.099Z,53.09
2018-02-09T11:14:05.077Z,53.04
2018-02-09T11:16:34.251Z,53.62
2018-02-09T11:19:05.128Z,53.22
2018-02-09T11:21:34.083Z,53.45
2018-02-09T11:24:03.194Z,53.20
2018-02-09T11:26:33.094Z,53.40
2018-02-09T11:29:02.187Z,53.51
2018-02-09T11:31:31.186Z,53.69
2018-02-09T11:34:02.028Z,53.27
2018-02-09T11:36:31.119Z,54.19
2018-02-09T11:39:00.251Z,54.02
2018-02-09T11:41:29.495Z,53.29
2018-02-09T11:44:00.352Z,53.16
2018-02-09T11:46:29.335Z,53.79
2018-02-09T11:48:59.566Z,53.01
2018-02-09T11:51:28.699Z,53.06
2018-02-09T11:53:58.105Z,52.91
2018-02-09T11:56:29.726Z,53.69
2018-02-09T11:58:58.827Z,53.15
2018-02-09T12:01:28.531Z,53.52
2018-02-09T12:03:57.669Z,53.16
2018-02-09T12:06:26.723Z,53.05
2018-02-09T12:08:55.719Z,52.74
2018-02-09T12:11:25.368Z,52.15
2018-02-09T12:13:54.468Z,51.48
2018-02-09T12:16:24.413Z,52.37
2018-02-09T12:18:58.653Z,52.57
2018-02-09T12:21:28.576Z,51.26
2018-02-09T12:23:57.670Z,51.43
2018-02-09T12:26:27.484Z,51.36
2018-02-09T12:28:57.398Z,50.94
2018-02-09T12:31:26.431Z,50.56
2018-02-09T12:33:55.526Z,51.16
2018-02-09T12:36:24.512Z,50.83
2018-02-09T12:38:53.433Z,50.23
2018-02-09T12:41:25.334Z,51.11
2018-02-09T12:43:54.738Z,51.31
2018-02-09T12:46:23.761Z,52.01
2018-02-09T12:48:54.164Z,53.01
2018-02-09T12:51:23.263Z,52.67
2018-02-09T12:53:52.244Z,52.49
2018-02-09T12:56:22.831Z,52.22
2018-02-09T12:58:51.912Z,52.94
2018-02-09T13:01:21.832Z,52.92
2018-02-09T13:03:51.028Z,53.12
2018-02-09T13:06:20.907Z,53.22
2018-02-09T13:08:50.626Z,52.51
2018-02-09T13:11:20.474Z,52.87
2018-02-09T13:13:49.980Z,52.94
2018-02-09T13:16:20.804Z,52.93
2018-02-09T13:18:51.775Z,52.41
2018-02-09T13:21:21.735Z,53.11
2018-02-09T13:24:02.733Z,53.05
2018-02-09T13:26:31.755Z,53.32
2018-02-09T13:29:00.947Z,53.13
2018-02-09T13:31:30.899Z,54.23
2018-02-09T13:34:00.065Z,53.72
2018-02-09T13:36:41.101Z,53.52
2018-02-09T13:39:10.084Z,53.48
2018-02-09T13:41:40.243Z,53.75
2018-02-09T13:44:10.594Z,54.35
2018-02-09T13:46:39.743Z,54.40
2018-02-09T13:49:09.075Z,54.47
2018-02-09T13:51:42.736Z,54.13
2018-02-09T13:54:11.947Z,53.96
2018-02-09T13:56:40.962Z,53.77
2018-02-09T13:59:13.403Z,53.84
2018-02-09T14:01:42.484Z,53.99
2018-02-09T14:04:11.954Z,54.62
2018-02-09T14:06:44.787Z,54.78
2018-02-09T14:09:14.906Z,55.08
2018-02-09T14:11:47.225Z,55.03
2018-02-09T14:14:16.378Z,55.03
2018-02-09T14:16:46.393Z,55.00
2018-02-09T14:19:17.248Z,55.60
2018-02-09T14:21:46.478Z,55.57
2018-02-09T14:24:15.454Z,55.49
2018-02-09T14:26:44.700Z,55.92
2018-02-09T14:29:14.702Z,56.46
2018-02-09T14:31:45.442Z,56.93
2018-02-09T14:34:15.910Z,56.79
2018-02-09T14:36:45.112Z,56.79
2018-02-09T14:39:18.807Z,56.86
2018-02-09T14:41:48.959Z,56.86
2018-02-09T14:44:19.050Z,56.92
2018-02-09T14:46:49.118Z,57.47
2018-02-09T14:49:18.311Z,57.98
2018-02-09T14:51:48.091Z,57.70
2018-02-09T14:54:18.986Z,58.03
2018-02-09T14:56:48.659Z,58.34
2018-02-09T14:59:17.716Z,58.10
2018-02-09T15:01:51.012Z,58.30
2018-02-09T15:04:20.255Z,58.03
2018-02-09T15:06:57.401Z,58.41
2018-02-09T15:09:27.465Z,58.74
2018-02-09T15:11:56.575Z,58.81
2018-02-09T15:14:28.557Z,58.96
2018-02-09T15:16:59.302Z,59.18
2018-02-09T15:19:28.408Z,59.91
2018-02-09T15:21:59.127Z,60.30
2018-02-09T15:24:28.245Z,60.17
2018-02-09T15:26:57.590Z,60.35
2018-02-09T15:29:26.957Z,60.13
2018-02-09T15:31:56.963Z,60.05
2018-02-09T15:34:27.286Z,60.25
2018-02-09T15:37:02.933Z,60.57
2018-02-09T15:39:32.854Z,60.77
2018-02-09T15:42:02.048Z,60.65
2018-02-09T15:44:31.406Z,60.47
2018-02-09T15:47:00.451Z,60.52
2018-02-09T15:49:30.284Z,60.93
2018-02-09T15:52:00.678Z,61.07
2018-02-09T15:54:29.937Z,61.76
2018-02-09T15:56:59.158Z,62.25
2018-02-09T15:59:29.584Z,62.56
2018-02-09T16:01:58.982Z,62.61
2018-02-09T16:04:28.451Z,63.05
2018-02-09T16:06:59.390Z,63.28
2018-02-09T16:09:29.590Z,64.18
2018-02-09T16:11:58.622Z,64.44
2018-02-09T16:14:29.386Z,64.49
2018-02-09T16:16:58.641Z,64.15
2018-02-09T16:19:27.937Z,63.91
2018-02-09T16:21:58.925Z,64.21
2018-02-09T16:24:28.057Z,64.54
2018-02-09T16:26:58.197Z,64.99
2018-02-09T16:29:27.374Z,65.26
2018-02-09T16:31:56.598Z,65.30
2018-02-09T16:34:25.676Z,65.34
2018-02-09T16:36:55.522Z,65.61
2018-02-09T16:39:24.823Z,65.72
2018-02-09T16:41:54.039Z,65.81
2018-02-09T16:44:23.243Z,65.87
2018-02-09T16:46:52.660Z,66.06
2018-02-09T16:49:21.807Z,66.32
2018-02-09T16:51:52.729Z,66.27
2018-02-09T16:54:22.107Z,67.21
2018-02-09T16:56:51.428Z,67.40
2018-02-09T16:59:23.047Z,67.63
2018-02-09T17:01:53.558Z,68.13
2018-02-09T17:04:22.882Z,68.51
2018-02-09T17:06:52.393Z,68.86
2018-02-09T17:09:21.888Z,69.49
2018-02-09T17:11:52.072Z,70.29
2018-02-09T17:14:23.055Z,69.94
2018-02-09T17:16:53.157Z,70.16
2018-02-09T17:19:22.834Z,70.27
2018-02-09T17:21:52.311Z,70.41
2018-02-09T17:24:21.828Z,70.93
2018-02-09T17:26:51.231Z,71.65
2018-02-09T17:29:21.470Z,72.07
2018-02-09T17:31:50.862Z,72.29
2018-02-09T17:34:21.023Z,72.48
2018-02-09T17:36:52.881Z,72.78
2018-02-09T17:39:22.629Z,73.42
2018-02-09T17:41:53.060Z,73.14
2018-02-09T17:44:26.517Z,73.17
2018-02-09T17:46:55.678Z,73.26
2018-02-09T17:49:24.671Z,73.25
2018-02-09T17:51:53.875Z,73.70
2018-02-09T17:54:23.820Z,73.68
2018-02-09T17:56:53.294Z,73.65
2018-02-09T17:59:24.372Z,74.00
2018-02-09T18:01:53.697Z,73.93
2018-02-09T18:04:22.943Z,74.48
2018-02-09T18:06:52.298Z,75.07
2018-02-09T18:09:21.723Z,75.29
2018-02-09T18:11:52.535Z,75.45
2018-02-09T18:14:22.784Z,75.75
2018-02-09T18:16:52.310Z,76.16
2018-02-09T18:19:21.618Z,76.03
2018-02-09T18:21:50.710Z,75.76
2018-02-09T18:24:20.143Z,75.69
2018-02-09T18:26:49.348Z,75.34
2018-02-09T18:29:19.226Z,75.26
2018-02-09T18:31:48.729Z,75.40
2018-02-09T18:34:21.534Z,75.51
2018-02-09T18:36:50.711Z,75.51
2018-02-09T18:39:19.959Z,75.36
2018-02-09T18:41:49.810Z,75.33
2018-02-09T18:44:20.282Z,75.29
2018-02-09T18:46:51.777Z,75.49
2018-02-09T18:49:22.653Z,76.35
2018-02-09T18:51:53.242Z,76.32
2018-02-09T18:54:24.273Z,76.13
2018-02-09T18:56:54.278Z,75.76
2018-02-09T18:59:23.988Z,75.67
2018-02-09T19:01:54.413Z,75.65
2018-02-09T19:04:23.983Z,75.50
2018-02-09T19:06:53.349Z,75.42
2018-02-09T19:09:22.561Z,75.52
2018-02-09T19:11:51.896Z,75.46
2018-02-09T19:14:22.927Z,76.30
2018-02-09T19:16:53.125Z,75.96
2018-02-09T19:19:22.314Z,76.18
2018-02-09T19:21:51.704Z,76.47
2018-02-09T19:24:21.156Z,76.64
2018-02-09T19:26:50.738Z,76.78
2018-02-09T19:29:21.584Z,76.97
2018-02-09T19:31:51.003Z,78.00
2018-02-09T19:34:20.168Z,78.67
2018-02-09T19:36:49.149Z,79.52
2018-02-09T19:39:18.114Z,79.84
2018-02-09T19:41:47.028Z,79.52
2018-02-09T19:44:19.428Z,79.04
2018-02-09T19:46:48.398Z,78.74
2018-02-09T19:49:17.479Z,78.88
2018-02-09T19:51:47.313Z,78.74
2018-02-09T19:54:16.434Z,78.57
2018-02-09T19:56:45.459Z,78.61
2018-02-09T19:59:16.216Z,78.70
2018-02-09T20:01:45.245Z,78.64
2018-02-09T20:04:14.296Z,78.43
2018-02-09T20:06:46.676Z,78.30
2018-02-09T20:09:15.858Z,78.11
2018-02-09T20:11:45.158Z,78.10
2018-02-09T20:14:14.292Z,78.07
2018-02-09T20:16:43.643Z,78.19
2018-02-09T20:19:12.926Z,77.90
2018-02-09T20:21:44.291Z,77.53
2018-02-09T20:24:13.436Z,77.85
2018-02-09T20:26:43.205Z,77.67
2018-02-09T20:29:12.516Z,77.35
2018-02-09T20:31:41.654Z,77.32
2018-02-09T20:34:10.732Z,77.78
2018-02-09T20:36:39.995Z,77.84
2018-02-09T20:39:09.950Z,77.80
2018-02-09T20:41:39.059Z,77.84
2018-02-09T20:46:43.500Z,78.21
2018-02-09T20:49:12.401Z,78.09
2018-02-09T20:51:41.414Z,78.00
2018-02-09T20:54:11.923Z,78.03
2018-02-09T20:56:42.956Z,78.10
2018-02-09T20:59:12.708Z,78.00
2018-02-09T21:01:42.256Z,78.28
2018-02-09T21:04:13.070Z,77.84
2018-02-09T21:06:42.635Z,77.98
2018-02-09T21:09:13.053Z,77.92
2018-02-09T21:11:42.676Z,77.58
2018-02-09T21:14:12.321Z,77.47
2018-02-09T21:16:41.941Z,77.22
2018-02-09T21:19:13.932Z,77.32
2018-02-09T21:21:43.193Z,77.31
2018-02-09T21:24:13.426Z,77.18
2018-02-09T21:26:43.950Z,77.35
2018-02-09T21:29:13.409Z,77.31
2018-02-09T21:31:42.853Z,77.88
2018-02-09T21:34:12.044Z,78.29
2018-02-09T21:36:41.626Z,77.60
2018-02-09T21:39:11.304Z,77.55
2018-02-09T21:41:41.437Z,77.91
2018-02-09T21:44:10.699Z,77.81
2018-02-09T21:46:40.065Z,78.00
2018-02-09T21:49:11.979Z,77.92
2018-02-09T21:51:41.724Z,78.13
2018-02-09T21:54:11.831Z,78.03
2018-02-09T21:56:42.417Z,78.09
2018-02-09T21:59:12.003Z,77.97
2018-02-09T22:01:41.541Z,78.26
2018-02-09T22:04:11.233Z,78.86
2018-02-09T22:06:40.800Z,78.93
2018-02-09T22:09:10.546Z,78.92
2018-02-09T22:11:39.909Z,78.97
2018-02-09T22:14:09.142Z,79.00
2018-02-09T22:16:38.320Z,79.05
2018-02-09T22:19:08.786Z,78.95
2018-02-09T22:21:38.068Z,79.18
2018-02-09T22:24:07.087Z,78.11
2018-02-09T22:26:36.120Z,79.07
2018-02-09T22:29:05.078Z,79.53
2018-02-09T22:31:34.088Z,79.12
2018-02-09T22:34:03.124Z,79.44
2018-02-09T22:36:32.126Z,79.62
2018-02-09T22:39:01.157Z,79.87
2018-02-09T22:41:31.087Z,80.03
2018-02-09T22:44:00.198Z,79.80
2018-02-09T22:46:29.212Z,79.64
2018-02-09T22:48:59.872Z,79.75
2018-02-09T22:51:28.981Z,78.65
2018-02-09T22:53:58.398Z,79.21
2018-02-09T22:56:28.322Z,79.63
2018-02-09T22:58:57.560Z,79.93
2018-02-09T23:01:26.698Z,79.84
2018-02-09T23:03:55.810Z,79.99
2018-02-09T23:06:25.177Z,80.02
2018-02-09T23:08:54.740Z,80.12
2018-02-09T23:11:25.400Z,80.25
2018-02-09T23:13:55.648Z,80.56
2018-02-09T23:16:24.945Z,80.58
2018-02-09T23:18:54.529Z,80.63
2018-02-09T23:21:23.724Z,80.48
2018-02-09T23:23:52.763Z,80.44
2018-02-09T23:26:24.008Z,80.67
2018-02-09T23:28:54.126Z,80.43
2018-02-09T23:31:24.310Z,80.82
2018-02-09T23:33:54.306Z,80.59
2018-02-09T23:36:24.375Z,80.83
2018-02-09T23:38:53.973Z,80.96
2018-02-09T23:41:24.357Z,80.87
2018-02-09T23:43:53.506Z,81.00
2018-02-09T23:46:22.777Z,81.07
2018-02-09T23:48:54.335Z,80.69
2018-02-09T23:51:24.405Z,81.20
2018-02-09T23:53:53.647Z,81.11
2018-02-09T23:56:23.994Z,80.89
2018-02-09T23:58:54.180Z,81.13
